sensor_id;sensor_type;location;lat;lon;timestamp;P1;durP1;ratioP1;P2;durP2;ratioP2
48835;SDS011;62581;47.342;7.908;2024-01-10T00:01:01;54.65;;;24.92;;
48835;SDS011;62581;47.342;7.908;2024-01-10T00:03:28;53.03;;;23.77;;
48835;SDS011;62581;47.342;7.908;2024-01-10T00:05:55;54.80;;;23.75;;
48835;SDS011;62581;47.342;7.908;2024-01-10T00:08:22;55.67;;;24.48;;
48835;SDS011;62581;47.342;7.908;2024-01-10T00:10:49;56.42;;;25.52;;
48835;SDS011;62581;47.342;7.908;2024-01-10T00:13:19;54.95;;;23.77;;
48835;SDS011;62581;47.342;7.908;2024-01-10T00:15:46;57.53;;;25.73;;
48835;SDS011;62581;47.342;7.908;2024-01-10T00:18:15;54.33;;;24.63;;
48835;SDS011;62581;47.342;7.908;2024-01-10T00:20:43;54.15;;;24.17;;
48835;SDS011;62581;47.342;7.908;2024-01-10T00:23:10;57.42;;;25.40;;
48835;SDS011;62581;47.342;7.908;2024-01-10T00:25:36;53.15;;;24.48;;
48835;SDS011;62581;47.342;7.908;2024-01-10T00:28:04;53.63;;;23.98;;
48835;SDS011;62581;47.342;7.908;2024-01-10T00:30:31;62.85;;;25.83;;
48835;SDS011;62581;47.342;7.908;2024-01-10T00:32:58;51.22;;;25.25;;
48835;SDS011;62581;47.342;7.908;2024-01-10T00:35:26;58.15;;;26.30;;
48835;SDS011;62581;47.342;7.908;2024-01-10T00:37:53;58.42;;;24.55;;
48835;SDS011;62581;47.342;7.908;2024-01-10T00:40:20;55.38;;;24.13;;
48835;SDS011;62581;47.342;7.908;2024-01-10T00:42:47;58.00;;;24.80;;
48835;SDS011;62581;47.342;7.908;2024-01-10T00:45:14;56.08;;;24.85;;
48835;SDS011;62581;47.342;7.908;2024-01-10T00:47:41;58.97;;;24.40;;
48835;SDS011;62581;47.342;7.908;2024-01-10T00:50:09;53.50;;;23.17;;
48835;SDS011;62581;47.342;7.908;2024-01-10T00:52:37;48.60;;;22.50;;
48835;SDS011;62581;47.342;7.908;2024-01-10T00:55:04;54.05;;;23.15;;
48835;SDS011;62581;47.342;7.908;2024-01-10T00:57:31;55.25;;;24.38;;
48835;SDS011;62581;47.342;7.908;2024-01-10T00:59:58;57.95;;;25.40;;
48835;SDS011;62581;47.342;7.908;2024-01-10T01:02:25;60.53;;;25.02;;
48835;SDS011;62581;47.342;7.908;2024-01-10T01:04:52;57.63;;;24.98;;
48835;SDS011;62581;47.342;7.908;2024-01-10T01:07:19;52.65;;;23.67;;
48835;SDS011;62581;47.342;7.908;2024-01-10T01:09:47;54.35;;;23.98;;
48835;SDS011;62581;47.342;7.908;2024-01-10T01:12:14;54.55;;;23.50;;
48835;SDS011;62581;47.342;7.908;2024-01-10T01:14:41;52.25;;;24.10;;
48835;SDS011;62581;47.342;7.908;2024-01-10T01:17:08;54.58;;;24.73;;
48835;SDS011;62581;47.342;7.908;2024-01-10T01:19:35;53.33;;;23.52;;
48835;SDS011;62581;47.342;7.908;2024-01-10T01:22:02;51.83;;;24.27;;
48835;SDS011;62581;47.342;7.908;2024-01-10T01:24:29;53.55;;;24.25;;
48835;SDS011;62581;47.342;7.908;2024-01-10T01:26:57;47.83;;;23.33;;
48835;SDS011;62581;47.342;7.908;2024-01-10T01:29:24;51.67;;;23.95;;
48835;SDS011;62581;47.342;7.908;2024-01-10T01:31:51;55.00;;;24.38;;
48835;SDS011;62581;47.342;7.908;2024-01-10T01:34:19;52.42;;;22.90;;
48835;SDS011;62581;47.342;7.908;2024-01-10T01:36:45;55.72;;;24.83;;
48835;SDS011;62581;47.342;7.908;2024-01-10T01:39:12;54.67;;;24.40;;
48835;SDS011;62581;47.342;7.908;2024-01-10T01:41:39;56.40;;;23.35;;
48835;SDS011;62581;47.342;7.908;2024-01-10T01:44:07;56.17;;;24.67;;
48835;SDS011;62581;47.342;7.908;2024-01-10T01:46:34;53.53;;;23.95;;
48835;SDS011;62581;47.342;7.908;2024-01-10T01:49:02;56.08;;;23.52;;
48835;SDS011;62581;47.342;7.908;2024-01-10T01:51:28;55.65;;;24.75;;
48835;SDS011;62581;47.342;7.908;2024-01-10T01:53:57;49.38;;;22.67;;
48835;SDS011;62581;47.342;7.908;2024-01-10T01:56:24;59.40;;;24.45;;
48835;SDS011;62581;47.342;7.908;2024-01-10T01:58:51;53.13;;;24.08;;
48835;SDS011;62581;47.342;7.908;2024-01-10T02:01:20;55.95;;;25.15;;
48835;SDS011;62581;47.342;7.908;2024-01-10T02:03:47;54.17;;;24.13;;
48835;SDS011;62581;47.342;7.908;2024-01-10T02:06:14;57.67;;;25.15;;
48835;SDS011;62581;47.342;7.908;2024-01-10T02:08:41;60.83;;;25.25;;
48835;SDS011;62581;47.342;7.908;2024-01-10T02:11:08;57.28;;;24.23;;
48835;SDS011;62581;47.342;7.908;2024-01-10T02:13:35;55.75;;;24.58;;
48835;SDS011;62581;47.342;7.908;2024-01-10T02:16:03;62.42;;;26.85;;
48835;SDS011;62581;47.342;7.908;2024-01-10T02:18:32;53.20;;;24.85;;
48835;SDS011;62581;47.342;7.908;2024-01-10T02:21:00;58.67;;;24.42;;
48835;SDS011;62581;47.342;7.908;2024-01-10T02:23:27;59.10;;;24.90;;
48835;SDS011;62581;47.342;7.908;2024-01-10T02:25:56;61.17;;;26.20;;
48835;SDS011;62581;47.342;7.908;2024-01-10T02:28:23;60.38;;;25.30;;
48835;SDS011;62581;47.342;7.908;2024-01-10T02:30:50;60.63;;;25.58;;
48835;SDS011;62581;47.342;7.908;2024-01-10T02:33:17;54.78;;;25.25;;
48835;SDS011;62581;47.342;7.908;2024-01-10T02:35:44;61.53;;;25.67;;
48835;SDS011;62581;47.342;7.908;2024-01-10T02:38:11;55.30;;;24.55;;
48835;SDS011;62581;47.342;7.908;2024-01-10T02:40:38;56.30;;;24.58;;
48835;SDS011;62581;47.342;7.908;2024-01-10T02:43:06;61.20;;;24.83;;
48835;SDS011;62581;47.342;7.908;2024-01-10T02:45:33;62.90;;;26.40;;
48835;SDS011;62581;47.342;7.908;2024-01-10T02:48:00;55.57;;;23.90;;
48835;SDS011;62581;47.342;7.908;2024-01-10T02:50:27;54.30;;;25.10;;
48835;SDS011;62581;47.342;7.908;2024-01-10T02:52:54;54.67;;;25.40;;
48835;SDS011;62581;47.342;7.908;2024-01-10T02:55:21;62.50;;;27.20;;
48835;SDS011;62581;47.342;7.908;2024-01-10T02:57:48;56.08;;;24.98;;
48835;SDS011;62581;47.342;7.908;2024-01-10T03:00:16;57.53;;;24.40;;
48835;SDS011;62581;47.342;7.908;2024-01-10T03:05:10;55.92;;;22.90;;
48835;SDS011;62581;47.342;7.908;2024-01-10T03:07:37;58.85;;;24.58;;
48835;SDS011;62581;47.342;7.908;2024-01-10T03:10:04;60.67;;;26.52;;
48835;SDS011;62581;47.342;7.908;2024-01-10T03:12:31;62.37;;;26.00;;
48835;SDS011;62581;47.342;7.908;2024-01-10T03:15:02;63.42;;;26.83;;
48835;SDS011;62581;47.342;7.908;2024-01-10T03:17:30;54.00;;;24.05;;
48835;SDS011;62581;47.342;7.908;2024-01-10T03:19:58;62.47;;;25.55;;
48835;SDS011;62581;47.342;7.908;2024-01-10T03:22:25;67.15;;;27.73;;
48835;SDS011;62581;47.342;7.908;2024-01-10T03:24:52;60.35;;;25.75;;
48835;SDS011;62581;47.342;7.908;2024-01-10T03:27:19;62.17;;;27.02;;
48835;SDS011;62581;47.342;7.908;2024-01-10T03:29:46;56.22;;;25.83;;
48835;SDS011;62581;47.342;7.908;2024-01-10T03:32:13;61.08;;;27.10;;
48835;SDS011;62581;47.342;7.908;2024-01-10T03:34:42;55.65;;;25.60;;
48835;SDS011;62581;47.342;7.908;2024-01-10T03:37:09;62.45;;;25.73;;
48835;SDS011;62581;47.342;7.908;2024-01-10T03:39:36;59.42;;;25.48;;
48835;SDS011;62581;47.342;7.908;2024-01-10T03:42:03;59.72;;;25.55;;
48835;SDS011;62581;47.342;7.908;2024-01-10T03:44:30;57.65;;;27.13;;
48835;SDS011;62581;47.342;7.908;2024-01-10T03:46:57;61.22;;;27.75;;
48835;SDS011;62581;47.342;7.908;2024-01-10T03:49:24;61.85;;;27.02;;
48835;SDS011;62581;47.342;7.908;2024-01-10T03:51:52;60.13;;;26.38;;
48835;SDS011;62581;47.342;7.908;2024-01-10T03:54:19;59.75;;;24.63;;
48835;SDS011;62581;47.342;7.908;2024-01-10T03:56:46;59.20;;;25.45;;
48835;SDS011;62581;47.342;7.908;2024-01-10T03:59:13;57.10;;;24.45;;
48835;SDS011;62581;47.342;7.908;2024-01-10T04:01:39;51.92;;;25.15;;
48835;SDS011;62581;47.342;7.908;2024-01-10T04:04:06;59.53;;;25.08;;
48835;SDS011;62581;47.342;7.908;2024-01-10T04:06:33;59.67;;;25.52;;
48835;SDS011;62581;47.342;7.908;2024-01-10T04:09:02;62.83;;;26.58;;
48835;SDS011;62581;47.342;7.908;2024-01-10T04:11:29;56.83;;;24.75;;
48835;SDS011;62581;47.342;7.908;2024-01-10T04:13:56;64.70;;;24.52;;
48835;SDS011;62581;47.342;7.908;2024-01-10T04:16:23;60.47;;;25.50;;
48835;SDS011;62581;47.342;7.908;2024-01-10T04:18:49;60.63;;;25.25;;
48835;SDS011;62581;47.342;7.908;2024-01-10T04:21:16;63.13;;;27.35;;
48835;SDS011;62581;47.342;7.908;2024-01-10T04:23:43;56.60;;;25.02;;
48835;SDS011;62581;47.342;7.908;2024-01-10T04:26:11;65.00;;;26.13;;
48835;SDS011;62581;47.342;7.908;2024-01-10T04:28:38;63.95;;;25.42;;
48835;SDS011;62581;47.342;7.908;2024-01-10T04:31:06;48.77;;;20.67;;
48835;SDS011;62581;47.342;7.908;2024-01-10T04:33:33;67.85;;;26.17;;
48835;SDS011;62581;47.342;7.908;2024-01-10T04:36:00;66.30;;;26.40;;
48835;SDS011;62581;47.342;7.908;2024-01-10T04:38:27;67.90;;;27.60;;
48835;SDS011;62581;47.342;7.908;2024-01-10T04:40:54;64.07;;;26.10;;
48835;SDS011;62581;47.342;7.908;2024-01-10T04:43:22;69.68;;;26.20;;
48835;SDS011;62581;47.342;7.908;2024-01-10T04:45:49;57.72;;;26.70;;
48835;SDS011;62581;47.342;7.908;2024-01-10T04:48:16;62.25;;;26.25;;
48835;SDS011;62581;47.342;7.908;2024-01-10T04:50:43;62.00;;;27.42;;
48835;SDS011;62581;47.342;7.908;2024-01-10T04:53:10;61.78;;;25.95;;
48835;SDS011;62581;47.342;7.908;2024-01-10T04:55:36;67.03;;;26.67;;
48835;SDS011;62581;47.342;7.908;2024-01-10T04:58:04;61.58;;;26.90;;
48835;SDS011;62581;47.342;7.908;2024-01-10T05:00:32;62.03;;;26.48;;
48835;SDS011;62581;47.342;7.908;2024-01-10T05:02:59;56.63;;;24.80;;
48835;SDS011;62581;47.342;7.908;2024-01-10T05:05:26;68.18;;;26.83;;
48835;SDS011;62581;47.342;7.908;2024-01-10T05:07:53;59.35;;;24.70;;
48835;SDS011;62581;47.342;7.908;2024-01-10T05:10:19;65.85;;;25.35;;
48835;SDS011;62581;47.342;7.908;2024-01-10T05:12:46;67.40;;;27.15;;
48835;SDS011;62581;47.342;7.908;2024-01-10T05:15:13;64.10;;;27.20;;
48835;SDS011;62581;47.342;7.908;2024-01-10T05:17:41;65.20;;;27.40;;
48835;SDS011;62581;47.342;7.908;2024-01-10T05:20:09;61.50;;;26.17;;
48835;SDS011;62581;47.342;7.908;2024-01-10T05:22:36;67.13;;;25.48;;
48835;SDS011;62581;47.342;7.908;2024-01-10T05:25:03;61.20;;;25.88;;
48835;SDS011;62581;47.342;7.908;2024-01-10T05:27:31;62.67;;;27.02;;
48835;SDS011;62581;47.342;7.908;2024-01-10T05:29:57;63.25;;;26.73;;
48835;SDS011;62581;47.342;7.908;2024-01-10T05:32:25;64.03;;;26.50;;
48835;SDS011;62581;47.342;7.908;2024-01-10T05:34:54;63.78;;;27.50;;
48835;SDS011;62581;47.342;7.908;2024-01-10T05:37:20;64.40;;;27.30;;
48835;SDS011;62581;47.342;7.908;2024-01-10T05:39:48;63.47;;;26.55;;
48835;SDS011;62581;47.342;7.908;2024-01-10T05:42:15;62.00;;;27.42;;
48835;SDS011;62581;47.342;7.908;2024-01-10T05:44:43;70.82;;;28.63;;
48835;SDS011;62581;47.342;7.908;2024-01-10T05:47:10;65.18;;;26.33;;
48835;SDS011;62581;47.342;7.908;2024-01-10T05:49:37;66.60;;;27.00;;
48835;SDS011;62581;47.342;7.908;2024-01-10T05:52:06;71.63;;;27.45;;
48835;SDS011;62581;47.342;7.908;2024-01-10T05:54:33;59.25;;;25.50;;
48835;SDS011;62581;47.342;7.908;2024-01-10T05:57:00;68.07;;;28.00;;
48835;SDS011;62581;47.342;7.908;2024-01-10T05:59:29;69.53;;;29.52;;
48835;SDS011;62581;47.342;7.908;2024-01-10T06:01:58;70.00;;;29.13;;
48835;SDS011;62581;47.342;7.908;2024-01-10T06:04:27;70.30;;;27.55;;
48835;SDS011;62581;47.342;7.908;2024-01-10T06:06:56;66.85;;;27.77;;
48835;SDS011;62581;47.342;7.908;2024-01-10T06:09:25;68.07;;;28.08;;
48835;SDS011;62581;47.342;7.908;2024-01-10T06:11:52;60.95;;;27.10;;
48835;SDS011;62581;47.342;7.908;2024-01-10T06:14:19;68.70;;;28.08;;
48835;SDS011;62581;47.342;7.908;2024-01-10T06:16:46;68.85;;;27.95;;
48835;SDS011;62581;47.342;7.908;2024-01-10T06:19:13;65.72;;;26.67;;
48835;SDS011;62581;47.342;7.908;2024-01-10T06:21:40;67.30;;;29.23;;
48835;SDS011;62581;47.342;7.908;2024-01-10T06:24:07;66.20;;;26.83;;
48835;SDS011;62581;47.342;7.908;2024-01-10T06:26:35;73.07;;;28.27;;
48835;SDS011;62581;47.342;7.908;2024-01-10T06:29:02;67.80;;;28.52;;
48835;SDS011;62581;47.342;7.908;2024-01-10T06:31:29;63.80;;;27.63;;
48835;SDS011;62581;47.342;7.908;2024-01-10T06:33:56;65.60;;;29.75;;
48835;SDS011;62581;47.342;7.908;2024-01-10T06:36:23;65.13;;;27.85;;
48835;SDS011;62581;47.342;7.908;2024-01-10T06:38:50;70.65;;;27.52;;
48835;SDS011;62581;47.342;7.908;2024-01-10T06:41:17;64.03;;;26.63;;
48835;SDS011;62581;47.342;7.908;2024-01-10T06:43:50;62.45;;;28.10;;
48835;SDS011;62581;47.342;7.908;2024-01-10T06:46:17;63.28;;;26.05;;
48835;SDS011;62581;47.342;7.908;2024-01-10T06:48:44;64.53;;;27.42;;
48835;SDS011;62581;47.342;7.908;2024-01-10T06:51:12;63.40;;;27.98;;
48835;SDS011;62581;47.342;7.908;2024-01-10T06:56:06;67.85;;;26.17;;
48835;SDS011;62581;47.342;7.908;2024-01-10T06:58:34;65.97;;;27.15;;
48835;SDS011;62581;47.342;7.908;2024-01-10T07:01:03;74.32;;;28.85;;
48835;SDS011;62581;47.342;7.908;2024-01-10T07:03:30;65.32;;;29.17;;
48835;SDS011;62581;47.342;7.908;2024-01-10T07:05:59;67.88;;;27.63;;
48835;SDS011;62581;47.342;7.908;2024-01-10T07:08:26;77.43;;;29.42;;
48835;SDS011;62581;47.342;7.908;2024-01-10T07:10:55;70.03;;;28.63;;
48835;SDS011;62581;47.342;7.908;2024-01-10T07:13:22;67.35;;;27.23;;
48835;SDS011;62581;47.342;7.908;2024-01-10T07:15:49;64.07;;;27.92;;
48835;SDS011;62581;47.342;7.908;2024-01-10T07:18:19;65.93;;;27.58;;
48835;SDS011;62581;47.342;7.908;2024-01-10T07:20:45;61.25;;;26.83;;
48835;SDS011;62581;47.342;7.908;2024-01-10T07:23:12;70.18;;;28.02;;
48835;SDS011;62581;47.342;7.908;2024-01-10T07:25:39;68.32;;;28.10;;
48835;SDS011;62581;47.342;7.908;2024-01-10T07:28:06;64.60;;;26.27;;
48835;SDS011;62581;47.342;7.908;2024-01-10T07:30:33;59.47;;;26.98;;
48835;SDS011;62581;47.342;7.908;2024-01-10T07:33:00;70.05;;;27.60;;
48835;SDS011;62581;47.342;7.908;2024-01-10T07:35:28;72.65;;;29.23;;
48835;SDS011;62581;47.342;7.908;2024-01-10T07:37:55;67.03;;;28.55;;
48835;SDS011;62581;47.342;7.908;2024-01-10T07:40:22;66.88;;;28.20;;
48835;SDS011;62581;47.342;7.908;2024-01-10T07:42:49;62.47;;;27.60;;
48835;SDS011;62581;47.342;7.908;2024-01-10T07:45:16;62.47;;;28.02;;
48835;SDS011;62581;47.342;7.908;2024-01-10T07:47:43;65.93;;;28.77;;
48835;SDS011;62581;47.342;7.908;2024-01-10T07:50:11;68.70;;;27.85;;
48835;SDS011;62581;47.342;7.908;2024-01-10T07:52:40;66.87;;;26.77;;
48835;SDS011;62581;47.342;7.908;2024-01-10T07:55:08;62.67;;;27.17;;
48835;SDS011;62581;47.342;7.908;2024-01-10T07:57:35;68.43;;;28.88;;
48835;SDS011;62581;47.342;7.908;2024-01-10T08:00:03;62.35;;;26.45;;
48835;SDS011;62581;47.342;7.908;2024-01-10T08:02:30;67.03;;;28.80;;
48835;SDS011;62581;47.342;7.908;2024-01-10T08:04:59;64.13;;;27.67;;
48835;SDS011;62581;47.342;7.908;2024-01-10T08:07:26;67.22;;;26.65;;
48835;SDS011;62581;47.342;7.908;2024-01-10T08:09:54;64.57;;;26.92;;
48835;SDS011;62581;47.342;7.908;2024-01-10T08:12:21;61.83;;;25.88;;
48835;SDS011;62581;47.342;7.908;2024-01-10T08:14:48;66.55;;;27.45;;
48835;SDS011;62581;47.342;7.908;2024-01-10T08:17:15;65.72;;;27.08;;
48835;SDS011;62581;47.342;7.908;2024-01-10T08:19:42;68.50;;;28.17;;
48835;SDS011;62581;47.342;7.908;2024-01-10T08:22:09;64.68;;;27.27;;
48835;SDS011;62581;47.342;7.908;2024-01-10T08:24:37;60.28;;;27.13;;
48835;SDS011;62581;47.342;7.908;2024-01-10T08:27:06;67.57;;;28.35;;
48835;SDS011;62581;47.342;7.908;2024-01-10T08:29:33;63.58;;;26.50;;
48835;SDS011;62581;47.342;7.908;2024-01-10T08:32:00;63.03;;;26.85;;
48835;SDS011;62581;47.342;7.908;2024-01-10T08:36:55;67.30;;;26.98;;
48835;SDS011;62581;47.342;7.908;2024-01-10T08:39:22;67.28;;;27.38;;
48835;SDS011;62581;47.342;7.908;2024-01-10T08:41:53;65.13;;;27.52;;
48835;SDS011;62581;47.342;7.908;2024-01-10T08:44:21;73.85;;;28.65;;
48835;SDS011;62581;47.342;7.908;2024-01-10T08:46:48;72.00;;;29.70;;
48835;SDS011;62581;47.342;7.908;2024-01-10T08:49:16;66.83;;;28.00;;
48835;SDS011;62581;47.342;7.908;2024-01-10T08:51:43;66.80;;;30.58;;
48835;SDS011;62581;47.342;7.908;2024-01-10T08:54:11;71.07;;;28.10;;
48835;SDS011;62581;47.342;7.908;2024-01-10T08:56:42;62.00;;;27.95;;
48835;SDS011;62581;47.342;7.908;2024-01-10T08:59:09;75.85;;;29.85;;
48835;SDS011;62581;47.342;7.908;2024-01-10T09:01:38;70.15;;;27.27;;
48835;SDS011;62581;47.342;7.908;2024-01-10T09:06:32;62.55;;;26.52;;
48835;SDS011;62581;47.342;7.908;2024-01-10T09:09:00;70.60;;;27.92;;
48835;SDS011;62581;47.342;7.908;2024-01-10T09:11:28;63.83;;;29.15;;
48835;SDS011;62581;47.342;7.908;2024-01-10T09:13:54;66.07;;;29.50;;
48835;SDS011;62581;47.342;7.908;2024-01-10T09:16:21;61.60;;;27.50;;
48835;SDS011;62581;47.342;7.908;2024-01-10T09:18:50;64.47;;;28.85;;
48835;SDS011;62581;47.342;7.908;2024-01-10T09:21:19;64.05;;;28.95;;
48835;SDS011;62581;47.342;7.908;2024-01-10T09:23:46;66.13;;;29.20;;
48835;SDS011;62581;47.342;7.908;2024-01-10T09:26:16;68.38;;;28.42;;
48835;SDS011;62581;47.342;7.908;2024-01-10T09:28:43;73.25;;;29.40;;
48835;SDS011;62581;47.342;7.908;2024-01-10T09:31:10;66.68;;;28.80;;
48835;SDS011;62581;47.342;7.908;2024-01-10T09:33:37;73.60;;;29.90;;
48835;SDS011;62581;47.342;7.908;2024-01-10T09:36:05;64.53;;;29.55;;
48835;SDS011;62581;47.342;7.908;2024-01-10T09:38:34;73.85;;;29.95;;
48835;SDS011;62581;47.342;7.908;2024-01-10T09:41:02;67.28;;;29.25;;
48835;SDS011;62581;47.342;7.908;2024-01-10T09:43:30;65.72;;;29.63;;
48835;SDS011;62581;47.342;7.908;2024-01-10T09:45:58;64.13;;;30.30;;
48835;SDS011;62581;47.342;7.908;2024-01-10T09:48:27;72.40;;;30.65;;
48835;SDS011;62581;47.342;7.908;2024-01-10T09:50:55;68.03;;;28.90;;
48835;SDS011;62581;47.342;7.908;2024-01-10T09:53:24;66.38;;;27.77;;
48835;SDS011;62581;47.342;7.908;2024-01-10T09:55:52;72.25;;;29.70;;
48835;SDS011;62581;47.342;7.908;2024-01-10T09:58:22;67.18;;;28.40;;
48835;SDS011;62581;47.342;7.908;2024-01-10T10:00:50;71.45;;;29.40;;
48835;SDS011;62581;47.342;7.908;2024-01-10T10:03:17;67.72;;;27.63;;
48835;SDS011;62581;47.342;7.908;2024-01-10T10:05:45;68.77;;;29.23;;
48835;SDS011;62581;47.342;7.908;2024-01-10T10:08:13;62.42;;;30.92;;
48835;SDS011;62581;47.342;7.908;2024-01-10T10:10:46;64.57;;;29.15;;
48835;SDS011;62581;47.342;7.908;2024-01-10T10:13:23;67.68;;;30.10;;
48835;SDS011;62581;47.342;7.908;2024-01-10T10:15:57;64.05;;;28.30;;
48835;SDS011;62581;47.342;7.908;2024-01-10T10:18:25;67.30;;;29.00;;
48835;SDS011;62581;47.342;7.908;2024-01-10T10:21:05;71.88;;;29.67;;
48835;SDS011;62581;47.342;7.908;2024-01-10T10:23:34;67.28;;;28.33;;
48835;SDS011;62581;47.342;7.908;2024-01-10T10:26:11;64.85;;;29.98;;
48835;SDS011;62581;47.342;7.908;2024-01-10T10:28:44;63.65;;;28.23;;
48835;SDS011;62581;47.342;7.908;2024-01-10T10:31:11;65.25;;;30.08;;
48835;SDS011;62581;47.342;7.908;2024-01-10T10:33:38;63.33;;;29.33;;
48835;SDS011;62581;47.342;7.908;2024-01-10T10:36:05;62.42;;;28.58;;
48835;SDS011;62581;47.342;7.908;2024-01-10T10:38:33;61.22;;;29.58;;
48835;SDS011;62581;47.342;7.908;2024-01-10T10:41:00;63.58;;;28.88;;
48835;SDS011;62581;47.342;7.908;2024-01-10T10:43:28;63.63;;;29.48;;
48835;SDS011;62581;47.342;7.908;2024-01-10T10:46:00;66.30;;;30.17;;
48835;SDS011;62581;47.342;7.908;2024-01-10T10:48:27;65.15;;;28.67;;
48835;SDS011;62581;47.342;7.908;2024-01-10T10:51:03;64.03;;;28.98;;
48835;SDS011;62581;47.342;7.908;2024-01-10T10:53:31;69.57;;;29.10;;
48835;SDS011;62581;47.342;7.908;2024-01-10T10:56:00;59.92;;;28.55;;
48835;SDS011;62581;47.342;7.908;2024-01-10T10:58:32;67.75;;;28.52;;
48835;SDS011;62581;47.342;7.908;2024-01-10T11:01:02;72.53;;;30.60;;
48835;SDS011;62581;47.342;7.908;2024-01-10T11:03:32;61.10;;;27.85;;
48835;SDS011;62581;47.342;7.908;2024-01-10T11:06:02;61.55;;;28.58;;
48835;SDS011;62581;47.342;7.908;2024-01-10T11:08:30;66.63;;;30.15;;
48835;SDS011;62581;47.342;7.908;2024-01-10T11:11:02;57.35;;;28.48;;
48835;SDS011;62581;47.342;7.908;2024-01-10T11:13:38;63.58;;;29.67;;
48835;SDS011;62581;47.342;7.908;2024-01-10T11:19:30;65.85;;;29.20;;
48835;SDS011;62581;47.342;7.908;2024-01-10T11:22:16;61.55;;;28.90;;
48835;SDS011;62581;47.342;7.908;2024-01-10T11:24:58;67.20;;;29.90;;
48835;SDS011;62581;47.342;7.908;2024-01-10T11:27:26;70.25;;;31.27;;
48835;SDS011;62581;47.342;7.908;2024-01-10T11:29:54;69.33;;;32.80;;
48835;SDS011;62581;47.342;7.908;2024-01-10T11:32:22;65.10;;;28.98;;
48835;SDS011;62581;47.342;7.908;2024-01-10T11:34:50;65.18;;;29.90;;
48835;SDS011;62581;47.342;7.908;2024-01-10T11:37:20;66.57;;;30.60;;
48835;SDS011;62581;47.342;7.908;2024-01-10T11:39:47;64.25;;;30.15;;
48835;SDS011;62581;47.342;7.908;2024-01-10T11:42:21;66.45;;;30.48;;
48835;SDS011;62581;47.342;7.908;2024-01-10T11:44:49;67.55;;;30.52;;
48835;SDS011;62581;47.342;7.908;2024-01-10T11:47:18;65.53;;;31.97;;
48835;SDS011;62581;47.342;7.908;2024-01-10T11:49:55;62.17;;;29.05;;
48835;SDS011;62581;47.342;7.908;2024-01-10T11:52:23;71.20;;;32.10;;
48835;SDS011;62581;47.342;7.908;2024-01-10T11:54:58;67.13;;;30.63;;
48835;SDS011;62581;47.342;7.908;2024-01-10T11:57:25;68.85;;;31.05;;
48835;SDS011;62581;47.342;7.908;2024-01-10T12:02:23;65.95;;;29.83;;
48835;SDS011;62581;47.342;7.908;2024-01-10T12:04:52;67.95;;;31.33;;
48835;SDS011;62581;47.342;7.908;2024-01-10T12:07:20;61.00;;;29.57;;
48835;SDS011;62581;47.342;7.908;2024-01-10T12:09:48;59.47;;;29.45;;
48835;SDS011;62581;47.342;7.908;2024-01-10T12:12:16;62.47;;;30.23;;
48835;SDS011;62581;47.342;7.908;2024-01-10T12:14:43;68.45;;;31.10;;
48835;SDS011;62581;47.342;7.908;2024-01-10T12:17:11;64.25;;;28.80;;
48835;SDS011;62581;47.342;7.908;2024-01-10T12:19:39;65.68;;;30.48;;
48835;SDS011;62581;47.342;7.908;2024-01-10T12:22:09;67.20;;;30.70;;
48835;SDS011;62581;47.342;7.908;2024-01-10T12:24:42;65.68;;;30.90;;
48835;SDS011;62581;47.342;7.908;2024-01-10T12:27:11;68.18;;;30.17;;
48835;SDS011;62581;47.342;7.908;2024-01-10T12:29:38;67.50;;;30.40;;
48835;SDS011;62581;47.342;7.908;2024-01-10T12:32:05;78.00;;;32.45;;
48835;SDS011;62581;47.342;7.908;2024-01-10T12:34:33;66.20;;;31.08;;
48835;SDS011;62581;47.342;7.908;2024-01-10T12:37:06;67.72;;;30.77;;
48835;SDS011;62581;47.342;7.908;2024-01-10T12:39:33;65.10;;;29.42;;
48835;SDS011;62581;47.342;7.908;2024-01-10T12:42:00;70.78;;;30.98;;
48835;SDS011;62581;47.342;7.908;2024-01-10T12:44:28;66.03;;;30.23;;
48835;SDS011;62581;47.342;7.908;2024-01-10T12:49:23;64.20;;;29.38;;
48835;SDS011;62581;47.342;7.908;2024-01-10T12:51:51;65.22;;;31.20;;
48835;SDS011;62581;47.342;7.908;2024-01-10T12:54:18;69.10;;;30.77;;
48835;SDS011;62581;47.342;7.908;2024-01-10T12:56:45;71.85;;;31.83;;
48835;SDS011;62581;47.342;7.908;2024-01-10T12:59:12;66.57;;;31.38;;
48835;SDS011;62581;47.342;7.908;2024-01-10T13:01:39;66.90;;;31.45;;
48835;SDS011;62581;47.342;7.908;2024-01-10T13:04:06;69.93;;;30.50;;
48835;SDS011;62581;47.342;7.908;2024-01-10T13:06:33;75.28;;;32.22;;
48835;SDS011;62581;47.342;7.908;2024-01-10T13:09:02;74.50;;;31.73;;
48835;SDS011;62581;47.342;7.908;2024-01-10T13:11:29;73.05;;;30.70;;
48835;SDS011;62581;47.342;7.908;2024-01-10T13:13:56;64.60;;;30.05;;
48835;SDS011;62581;47.342;7.908;2024-01-10T13:16:23;70.53;;;30.65;;
48835;SDS011;62581;47.342;7.908;2024-01-10T13:18:50;68.63;;;32.45;;
48835;SDS011;62581;47.342;7.908;2024-01-10T13:21:18;72.97;;;32.15;;
48835;SDS011;62581;47.342;7.908;2024-01-10T13:23:45;69.75;;;31.13;;
48835;SDS011;62581;47.342;7.908;2024-01-10T13:26:14;74.68;;;31.98;;
48835;SDS011;62581;47.342;7.908;2024-01-10T13:28:41;69.32;;;31.80;;
48835;SDS011;62581;47.342;7.908;2024-01-10T13:31:08;70.28;;;31.08;;
48835;SDS011;62581;47.342;7.908;2024-01-10T13:33:35;71.10;;;30.70;;
48835;SDS011;62581;47.342;7.908;2024-01-10T13:36:03;72.37;;;32.70;;
48835;SDS011;62581;47.342;7.908;2024-01-10T13:38:31;75.13;;;32.27;;
48835;SDS011;62581;47.342;7.908;2024-01-10T13:40:58;72.97;;;31.88;;
48835;SDS011;62581;47.342;7.908;2024-01-10T13:43:27;72.88;;;30.23;;
48835;SDS011;62581;47.342;7.908;2024-01-10T13:45:54;68.43;;;31.50;;
48835;SDS011;62581;47.342;7.908;2024-01-10T13:48:21;70.18;;;31.65;;
48835;SDS011;62581;47.342;7.908;2024-01-10T13:50:48;67.25;;;29.92;;
48835;SDS011;62581;47.342;7.908;2024-01-10T13:53:15;71.97;;;33.00;;
48835;SDS011;62581;47.342;7.908;2024-01-10T13:55:42;72.20;;;30.90;;
48835;SDS011;62581;47.342;7.908;2024-01-10T13:58:11;69.15;;;31.63;;
48835;SDS011;62581;47.342;7.908;2024-01-10T14:00:39;71.88;;;32.50;;
48835;SDS011;62581;47.342;7.908;2024-01-10T14:03:06;67.32;;;30.48;;
48835;SDS011;62581;47.342;7.908;2024-01-10T14:05:33;77.53;;;33.45;;
48835;SDS011;62581;47.342;7.908;2024-01-10T14:08:00;75.78;;;31.90;;
48835;SDS011;62581;47.342;7.908;2024-01-10T14:10:27;71.97;;;32.75;;
48835;SDS011;62581;47.342;7.908;2024-01-10T14:12:54;71.85;;;32.25;;
48835;SDS011;62581;47.342;7.908;2024-01-10T14:15:21;76.50;;;32.55;;
48835;SDS011;62581;47.342;7.908;2024-01-10T14:17:50;71.95;;;30.60;;
48835;SDS011;62581;47.342;7.908;2024-01-10T14:20:17;80.57;;;32.33;;
48835;SDS011;62581;47.342;7.908;2024-01-10T14:22:46;76.32;;;32.42;;
48835;SDS011;62581;47.342;7.908;2024-01-10T14:25:15;75.30;;;31.13;;
48835;SDS011;62581;47.342;7.908;2024-01-10T14:27:42;70.95;;;30.63;;
48835;SDS011;62581;47.342;7.908;2024-01-10T14:30:09;77.05;;;32.08;;
48835;SDS011;62581;47.342;7.908;2024-01-10T14:32:36;79.72;;;33.25;;
48835;SDS011;62581;47.342;7.908;2024-01-10T14:35:07;71.40;;;31.70;;
48835;SDS011;62581;47.342;7.908;2024-01-10T14:37:34;69.88;;;31.80;;
48835;SDS011;62581;47.342;7.908;2024-01-10T14:40:01;79.63;;;32.53;;
48835;SDS011;62581;47.342;7.908;2024-01-10T14:42:29;71.40;;;31.15;;